createdAt,value
2018-12-10T00:00:12.550Z,6.50
2018-12-10T00:01:18.162Z,6.50
2018-12-10T00:02:23.800Z,6.50
2018-12-10T00:03:34.497Z,6.50
2018-12-10T00:04:40.145Z,6.50
2018-12-10T00:05:46.021Z,6.40
2018-12-10T00:06:49.801Z,6.50
2018-12-10T00:07:53.519Z,6.50
2018-12-10T00:08:57.413Z,6.50
2018-12-10T00:10:01.259Z,6.40
2018-12-10T00:11:05.061Z,6.40
2018-12-10T00:12:08.846Z,6.40
2018-12-10T00:13:12.586Z,6.40
2018-12-10T00:14:16.325Z,6.40
2018-12-10T00:15:20.054Z,6.40
2018-12-10T00:16:23.822Z,6.40
2018-12-10T00:17:27.478Z,6.40
2018-12-10T00:18:31.188Z,6.40
2018-12-10T00:19:34.942Z,6.40
2018-12-10T00:20:38.694Z,6.30
2018-12-10T00:21:42.469Z,6.40
2018-12-10T00:22:46.293Z,6.40
2018-12-10T00:23:50.051Z,6.40
2018-12-10T00:24:53.819Z,6.40
2018-12-10T00:25:57.581Z,6.30
2018-12-10T00:27:01.370Z,6.40
2018-12-10T00:28:05.157Z,6.40
2018-12-10T00:29:08.995Z,6.40
2018-12-10T00:30:12.771Z,6.40
2018-12-10T00:31:16.501Z,6.40
2018-12-10T00:32:20.194Z,6.30
2018-12-10T00:33:24.005Z,6.30
2018-12-10T00:34:27.866Z,6.30
2018-12-10T00:35:31.638Z,6.30
2018-12-10T00:36:35.434Z,6.30
2018-12-10T00:37:39.181Z,6.30
2018-12-10T00:38:42.907Z,6.30
2018-12-10T00:39:46.683Z,6.30
2018-12-10T00:40:50.433Z,6.30
2018-12-10T00:41:54.172Z,6.30
2018-12-10T00:42:58.006Z,6.30
2018-12-10T00:44:01.740Z,6.30
2018-12-10T00:45:06.441Z,6.30
2018-12-10T00:46:10.174Z,6.30
2018-12-10T00:47:13.935Z,6.40
2018-12-10T00:48:17.678Z,6.40
2018-12-10T00:49:21.397Z,6.40
2018-12-10T00:50:25.017Z,6.40
2018-12-10T00:51:28.739Z,6.40
2018-12-10T00:52:32.478Z,6.40
2018-12-10T00:53:36.186Z,6.40
2018-12-10T00:54:39.883Z,6.40
2018-12-10T00:55:43.568Z,6.40
2018-12-10T00:56:47.319Z,6.30
2018-12-10T00:57:51.154Z,6.40
2018-12-10T00:58:54.877Z,6.30
2018-12-10T00:59:58.713Z,6.30
2018-12-10T01:01:02.537Z,6.30
2018-12-10T01:02:06.328Z,6.30
2018-12-10T01:03:10.077Z,6.30
2018-12-10T01:04:13.818Z,6.30
2018-12-10T01:05:17.548Z,6.30
2018-12-10T01:06:21.259Z,6.30
2018-12-10T01:07:25.257Z,6.30
2018-12-10T01:08:28.966Z,6.30
2018-12-10T01:09:32.699Z,6.30
2018-12-10T01:10:36.442Z,6.30
2018-12-10T01:11:40.157Z,6.30
2018-12-10T01:12:45.773Z,6.30
2018-12-10T01:13:49.754Z,6.30
2018-12-10T01:14:53.481Z,6.30
2018-12-10T01:15:57.270Z,6.30
2018-12-10T01:17:01.106Z,6.30
2018-12-10T01:18:04.824Z,6.30
2018-12-10T01:19:08.600Z,6.30
2018-12-10T01:20:12.383Z,6.30
2018-12-10T01:21:16.164Z,6.30
2018-12-10T01:22:20.024Z,6.30
2018-12-10T01:23:23.826Z,6.30
2018-12-10T01:24:27.525Z,6.30
2018-12-10T01:25:31.276Z,6.30
2018-12-10T01:26:35.670Z,6.30
2018-12-10T01:27:39.598Z,6.30
2018-12-10T01:28:43.473Z,6.30
2018-12-10T01:29:47.202Z,6.30
2018-12-10T01:30:51.168Z,6.30
2018-12-10T01:31:54.946Z,6.20
2018-12-10T01:32:58.680Z,6.20
2018-12-10T01:34:02.366Z,6.20
2018-12-10T01:35:07.088Z,6.20
2018-12-10T01:36:10.877Z,6.20
2018-12-10T01:37:14.728Z,6.20
2018-12-10T01:38:18.585Z,6.10
2018-12-10T01:39:22.288Z,6.10
2018-12-10T01:40:26.061Z,6.10
2018-12-10T01:41:29.777Z,6.10
2018-12-10T01:42:33.454Z,6.00
2018-12-10T01:43:37.197Z,6.10
2018-12-10T01:44:42.120Z,6.00
2018-12-10T01:45:45.862Z,6.00
2018-12-10T01:46:49.643Z,6.00
2018-12-10T01:47:53.403Z,6.00
2018-12-10T01:48:57.085Z,6.00
2018-12-10T01:50:00.677Z,6.00
2018-12-10T01:51:04.428Z,5.90
2018-12-10T01:52:08.256Z,5.90
2018-12-10T01:53:12.173Z,5.90
2018-12-10T01:54:15.892Z,5.90
2018-12-10T01:55:19.632Z,5.90
2018-12-10T01:56:23.414Z,5.90
2018-12-10T01:57:27.131Z,5.90
2018-12-10T01:58:30.933Z,5.90
2018-12-10T01:59:34.673Z,5.90
2018-12-10T02:00:38.457Z,5.90
2018-12-10T02:01:42.257Z,5.80
2018-12-10T02:02:46.138Z,5.80
2018-12-10T02:03:49.885Z,5.90
2018-12-10T02:04:53.597Z,5.80
2018-12-10T02:05:57.389Z,5.80
2018-12-10T02:07:01.142Z,5.80
2018-12-10T02:08:04.959Z,5.80
2018-12-10T02:09:08.866Z,5.80
2018-12-10T02:10:12.843Z,5.80
2018-12-10T02:11:16.450Z,5.80
2018-12-10T02:12:20.203Z,5.80
2018-12-10T02:13:23.945Z,5.80
2018-12-10T02:14:27.661Z,5.70
2018-12-10T02:15:32.065Z,5.80
2018-12-10T02:16:35.861Z,5.70
2018-12-10T02:17:40.587Z,5.70
2018-12-10T02:18:44.313Z,5.70
2018-12-10T02:19:48.052Z,5.70
2018-12-10T02:20:51.749Z,5.70
2018-12-10T02:21:56.479Z,5.70
2018-12-10T02:23:00.239Z,5.80
2018-12-10T02:24:03.964Z,5.80
2018-12-10T02:25:07.745Z,5.80
2018-12-10T02:26:11.638Z,5.80
2018-12-10T02:27:15.355Z,5.80
2018-12-10T02:28:23.324Z,5.80
2018-12-10T02:29:27.075Z,5.80
2018-12-10T02:30:30.787Z,5.80
2018-12-10T02:31:34.499Z,5.90
2018-12-10T02:32:38.243Z,5.90
2018-12-10T02:33:42.011Z,5.90
2018-12-10T02:34:45.735Z,5.90
2018-12-10T02:35:49.471Z,5.90
2018-12-10T02:36:53.420Z,5.80
2018-12-10T02:37:57.173Z,5.90
2018-12-10T02:39:01.162Z,5.80
2018-12-10T02:40:06.395Z,5.80
2018-12-10T02:41:10.126Z,5.80
2018-12-10T02:42:13.911Z,5.80
2018-12-10T02:43:24.449Z,5.80
2018-12-10T02:44:28.227Z,5.80
2018-12-10T02:45:31.885Z,5.80
2018-12-10T02:46:35.613Z,5.80
2018-12-10T02:47:39.348Z,5.80
2018-12-10T02:48:43.087Z,5.80
2018-12-10T02:49:46.997Z,5.70
2018-12-10T02:50:50.964Z,5.70
2018-12-10T02:51:54.756Z,5.70
2018-12-10T02:52:58.424Z,5.70
2018-12-10T02:54:02.074Z,5.70
2018-12-10T02:55:05.933Z,5.70
2018-12-10T02:56:09.897Z,5.70
2018-12-10T02:57:13.730Z,5.70
2018-12-10T02:58:17.437Z,5.70
2018-12-10T02:59:21.183Z,5.70
2018-12-10T03:00:25.346Z,5.70
2018-12-10T03:01:29.197Z,5.70
2018-12-10T03:02:33.151Z,5.70
2018-12-10T03:03:37.677Z,5.70
2018-12-10T03:04:41.504Z,5.70
2018-12-10T03:05:45.322Z,5.70
2018-12-10T03:06:49.150Z,5.60
2018-12-10T03:07:53.033Z,5.60
2018-12-10T03:08:56.789Z,5.70
2018-12-10T03:10:00.467Z,5.70
2018-12-10T03:11:04.277Z,5.70
2018-12-10T03:12:08.080Z,5.70
2018-12-10T03:13:11.811Z,5.70
2018-12-10T03:14:15.590Z,5.70
2018-12-10T03:15:19.761Z,5.70
2018-12-10T03:16:23.666Z,5.70
2018-12-10T03:17:27.483Z,5.70
2018-12-10T03:18:31.305Z,5.70
2018-12-10T03:19:35.027Z,5.70
2018-12-10T03:20:38.947Z,5.70
2018-12-10T03:21:42.659Z,5.70
2018-12-10T03:22:46.493Z,5.70
2018-12-10T03:23:50.265Z,5.70
2018-12-10T03:24:53.961Z,5.70
2018-12-10T03:25:57.674Z,5.70
2018-12-10T03:27:01.641Z,5.70
2018-12-10T03:28:05.360Z,5.70
2018-12-10T03:29:09.256Z,5.70
2018-12-10T03:30:13.009Z,5.70
2018-12-10T03:31:16.753Z,5.70
2018-12-10T03:32:20.625Z,5.70
2018-12-10T03:33:25.368Z,5.70
2018-12-10T03:34:29.075Z,5.70
2018-12-10T03:35:32.885Z,5.70
2018-12-10T03:36:36.636Z,5.70
2018-12-10T03:37:41.466Z,5.70
2018-12-10T03:38:45.193Z,5.70
2018-12-10T03:39:48.870Z,5.70
2018-12-10T03:40:52.558Z,5.70
2018-12-10T03:41:56.378Z,5.70
2018-12-10T03:43:00.114Z,5.70
2018-12-10T03:44:04.170Z,5.70
2018-12-10T03:45:07.998Z,5.70
2018-12-10T03:46:11.924Z,5.70
2018-12-10T03:47:15.594Z,5.70
2018-12-10T03:48:19.510Z,5.70
2018-12-10T03:49:23.275Z,5.70
2018-12-10T03:50:26.971Z,5.70
2018-12-10T03:51:30.804Z,5.70
2018-12-10T03:52:34.662Z,5.70
2018-12-10T03:53:38.386Z,5.70
2018-12-10T03:54:42.102Z,5.70
2018-12-10T03:55:45.847Z,5.70
2018-12-10T03:56:49.848Z,5.70
2018-12-10T03:57:53.774Z,5.70
2018-12-10T03:58:57.563Z,5.70
2018-12-10T04:00:01.281Z,5.70
2018-12-10T04:01:05.043Z,5.70
2018-12-10T04:02:08.893Z,5.70
2018-12-10T04:03:12.644Z,5.70
2018-12-10T04:04:16.369Z,5.70
2018-12-10T04:05:20.119Z,5.70
2018-12-10T04:06:23.978Z,5.70
2018-12-10T04:07:27.765Z,5.70
2018-12-10T04:08:31.517Z,5.70
2018-12-10T04:09:35.371Z,5.70
2018-12-10T04:10:39.202Z,5.70
2018-12-10T04:11:42.990Z,5.70
2018-12-10T04:12:46.707Z,5.70
2018-12-10T04:13:50.475Z,5.70
2018-12-10T04:14:54.220Z,5.70
2018-12-10T04:15:57.919Z,5.70
2018-12-10T04:17:01.720Z,5.70
2018-12-10T04:18:05.500Z,5.70
2018-12-10T04:19:09.319Z,5.70
2018-12-10T04:20:13.043Z,5.70
2018-12-10T04:21:16.897Z,5.70
2018-12-10T04:22:21.822Z,5.70
2018-12-10T04:23:25.715Z,5.70
2018-12-10T04:24:31.368Z,5.70
2018-12-10T04:25:35.124Z,5.70
2018-12-10T04:26:39.061Z,5.70
2018-12-10T04:27:42.770Z,5.70
2018-12-10T04:28:46.552Z,5.70
2018-12-10T04:29:50.343Z,5.70
2018-12-10T04:30:54.089Z,5.70
2018-12-10T04:31:57.784Z,5.70
2018-12-10T04:33:01.806Z,5.70
2018-12-10T04:34:05.646Z,5.70
2018-12-10T04:35:09.431Z,5.70
2018-12-10T04:36:13.224Z,5.70
2018-12-10T04:37:17.144Z,5.70
2018-12-10T04:38:20.833Z,5.70
2018-12-10T04:39:24.597Z,5.70
2018-12-10T04:40:28.527Z,5.70
2018-12-10T04:41:32.248Z,5.70
2018-12-10T04:42:36.117Z,5.70
2018-12-10T04:43:39.894Z,5.70
2018-12-10T04:44:43.612Z,5.70
2018-12-10T04:45:47.439Z,5.70
2018-12-10T04:46:51.105Z,5.70
2018-12-10T04:47:54.862Z,5.70
2018-12-10T04:48:58.650Z,5.60
2018-12-10T04:50:02.421Z,5.70
2018-12-10T04:51:06.214Z,5.70
2018-12-10T04:52:10.250Z,5.70
2018-12-10T04:53:14.096Z,5.70
2018-12-10T04:54:17.861Z,5.70
2018-12-10T04:55:21.750Z,5.60
2018-12-10T04:56:25.440Z,5.60
2018-12-10T04:57:29.202Z,5.60
2018-12-10T04:58:33.015Z,5.60
2018-12-10T04:59:36.754Z,5.60
2018-12-10T05:00:40.453Z,5.70
2018-12-10T05:01:44.215Z,5.70
2018-12-10T05:02:47.930Z,5.70
2018-12-10T05:03:51.908Z,5.70
2018-12-10T05:04:55.916Z,5.70
2018-12-10T05:05:59.802Z,5.60
2018-12-10T05:07:03.918Z,5.70
2018-12-10T05:08:07.629Z,5.60
2018-12-10T05:09:11.466Z,5.70
2018-12-10T05:10:15.184Z,5.70
2018-12-10T05:11:18.895Z,5.70
2018-12-10T05:12:22.612Z,5.70
2018-12-10T05:13:27.491Z,5.70
2018-12-10T05:14:31.398Z,5.70
2018-12-10T05:15:35.101Z,5.70
2018-12-10T05:16:38.821Z,5.70
2018-12-10T05:17:42.484Z,5.70
2018-12-10T05:18:46.176Z,5.70
2018-12-10T05:19:49.917Z,5.70
2018-12-10T05:20:54.131Z,5.70
2018-12-10T05:21:57.938Z,5.70
2018-12-10T05:23:01.759Z,5.70
2018-12-10T05:24:05.573Z,5.70
2018-12-10T05:25:09.343Z,5.70
2018-12-10T05:26:13.363Z,5.70
2018-12-10T05:27:17.178Z,5.70
2018-12-10T05:28:20.935Z,5.70
2018-12-10T05:29:24.689Z,5.70
2018-12-10T05:30:28.365Z,5.70
2018-12-10T05:31:32.276Z,5.70
2018-12-10T05:32:36.057Z,5.70
2018-12-10T05:33:39.730Z,5.70
2018-12-10T05:34:43.562Z,5.70
2018-12-10T05:35:47.292Z,5.70
2018-12-10T05:36:52.118Z,5.70
2018-12-10T05:37:55.830Z,5.70
2018-12-10T05:38:59.678Z,5.70
2018-12-10T05:40:03.630Z,5.70
2018-12-10T05:41:07.509Z,5.70
2018-12-10T05:42:11.253Z,5.70
2018-12-10T05:43:14.990Z,5.70
2018-12-10T05:44:18.763Z,5.70
2018-12-10T05:45:22.518Z,5.70
2018-12-10T05:46:26.510Z,5.60
2018-12-10T05:47:30.405Z,5.60
2018-12-10T05:48:34.302Z,5.60
2018-12-10T05:49:38.066Z,5.60
2018-12-10T05:50:41.773Z,5.60
2018-12-10T05:51:45.540Z,5.60
2018-12-10T05:52:50.574Z,5.60
2018-12-10T05:53:54.492Z,5.60
2018-12-10T05:54:58.196Z,5.60
2018-12-10T05:56:01.975Z,5.60
2018-12-10T05:57:05.717Z,5.60
2018-12-10T05:58:09.410Z,5.60
2018-12-10T05:59:13.128Z,5.60
2018-12-10T06:00:16.835Z,5.60
2018-12-10T06:01:20.630Z,5.60
2018-12-10T06:02:24.426Z,5.60
2018-12-10T06:03:28.185Z,5.60
2018-12-10T06:04:32.213Z,5.60
2018-12-10T06:05:36.025Z,5.60
2018-12-10T06:06:40.786Z,5.60
2018-12-10T06:07:44.537Z,5.60
2018-12-10T06:08:48.322Z,5.60
2018-12-10T06:09:52.069Z,5.60
2018-12-10T06:10:55.741Z,5.60
2018-12-10T06:12:00.328Z,5.60
2018-12-10T06:13:04.075Z,5.60
2018-12-10T06:14:08.584Z,5.60
2018-12-10T06:15:12.284Z,5.60
2018-12-10T06:16:16.766Z,5.60
2018-12-10T06:17:20.716Z,5.60
2018-12-10T06:18:24.397Z,5.60
2018-12-10T06:19:28.139Z,5.60
2018-12-10T06:20:31.945Z,5.60
2018-12-10T06:21:35.684Z,5.50
2018-12-10T06:22:39.438Z,5.50
2018-12-10T06:23:43.169Z,5.60
2018-12-10T06:24:46.957Z,5.50
2018-12-10T06:25:50.722Z,5.50
2018-12-10T06:26:54.467Z,5.60
2018-12-10T06:27:58.190Z,5.60
2018-12-10T06:29:01.912Z,5.60
2018-12-10T06:30:06.144Z,5.60
2018-12-10T06:31:09.891Z,5.60
2018-12-10T06:32:13.636Z,5.60
2018-12-10T06:33:17.497Z,5.60
2018-12-10T06:34:21.603Z,5.60
2018-12-10T06:35:25.354Z,5.60
2018-12-10T06:36:29.171Z,5.60
2018-12-10T06:37:37.617Z,5.60
2018-12-10T06:38:38.678Z,5.60
2018-12-10T06:39:42.396Z,5.60
2018-12-10T06:40:46.142Z,5.60
2018-12-10T06:41:49.866Z,5.60
2018-12-10T06:42:53.565Z,5.50
2018-12-10T06:43:57.280Z,5.50
2018-12-10T06:45:01.033Z,5.50
2018-12-10T06:46:04.780Z,5.50
2018-12-10T06:47:08.482Z,5.50
2018-12-10T06:48:12.168Z,5.50
2018-12-10T06:49:15.926Z,5.50
2018-12-10T06:50:19.715Z,5.50
2018-12-10T06:51:23.475Z,5.40
2018-12-10T06:52:27.186Z,5.40
2018-12-10T06:53:30.913Z,5.40
2018-12-10T06:54:34.643Z,5.40
2018-12-10T06:55:38.359Z,5.40
2018-12-10T06:56:42.059Z,5.40
2018-12-10T06:57:45.788Z,5.30
2018-12-10T06:58:49.550Z,5.30
2018-12-10T06:59:53.299Z,5.30
2018-12-10T07:00:57.041Z,5.30
2018-12-10T07:02:00.823Z,5.30
2018-12-10T07:03:05.468Z,5.30
2018-12-10T07:04:09.271Z,5.30
2018-12-10T07:05:13.096Z,5.30
2018-12-10T07:06:16.868Z,5.30
2018-12-10T07:07:20.570Z,5.30
2018-12-10T07:08:24.268Z,5.40
2018-12-10T07:09:27.952Z,5.30
2018-12-10T07:10:31.744Z,5.30
2018-12-10T07:11:35.470Z,5.30
2018-12-10T07:12:39.258Z,5.30
2018-12-10T07:13:43.030Z,5.20
2018-12-10T07:14:46.791Z,5.30
2018-12-10T07:15:50.511Z,5.30
2018-12-10T07:16:54.599Z,5.20
2018-12-10T07:17:59.535Z,5.20
2018-12-10T07:19:03.314Z,5.20
2018-12-10T07:20:07.441Z,5.20
2018-12-10T07:21:12.207Z,5.20
2018-12-10T07:22:17.074Z,5.20
2018-12-10T07:23:20.815Z,5.20
2018-12-10T07:24:24.562Z,5.20
2018-12-10T07:25:28.351Z,5.20
2018-12-10T07:26:32.054Z,5.20
2018-12-10T07:27:35.767Z,5.20
2018-12-10T07:28:39.499Z,5.20
2018-12-10T07:29:43.149Z,5.20
2018-12-10T07:31:57.229Z,5.20
2018-12-10T07:33:01.038Z,5.20
2018-12-10T07:34:04.758Z,5.20
2018-12-10T07:35:08.633Z,5.20
2018-12-10T07:36:12.382Z,5.20
2018-12-10T07:37:16.146Z,5.20
2018-12-10T07:38:19.998Z,5.20
2018-12-10T07:39:23.746Z,5.10
2018-12-10T07:40:27.542Z,5.10
2018-12-10T07:41:31.354Z,5.20
2018-12-10T07:42:35.082Z,5.10
2018-12-10T07:43:39.686Z,5.10
2018-12-10T07:44:43.418Z,5.10
2018-12-10T07:45:47.172Z,5.20
2018-12-10T07:46:50.929Z,5.10
2018-12-10T07:47:54.602Z,5.10
2018-12-10T07:48:58.357Z,5.20
2018-12-10T07:50:02.086Z,5.20
2018-12-10T07:51:05.863Z,5.20
2018-12-10T07:52:10.013Z,5.20
2018-12-10T07:53:14.827Z,5.20
2018-12-10T07:54:18.660Z,5.20
2018-12-10T07:55:22.425Z,5.20
2018-12-10T07:56:29.141Z,5.20
2018-12-10T07:57:31.869Z,5.20
2018-12-10T07:58:35.614Z,5.20
2018-12-10T07:59:39.314Z,5.20
2018-12-10T08:00:43.138Z,5.20
2018-12-10T08:01:46.882Z,5.20
2018-12-10T08:02:50.637Z,5.20
2018-12-10T08:03:54.917Z,5.20
2018-12-10T08:04:58.762Z,5.30
2018-12-10T08:06:02.536Z,5.30
2018-12-10T08:07:06.348Z,5.30
2018-12-10T08:08:10.123Z,5.30
2018-12-10T08:09:14.023Z,5.30
2018-12-10T08:10:17.726Z,5.30
2018-12-10T08:11:22.493Z,5.30
2018-12-10T08:12:26.271Z,5.30
2018-12-10T08:13:30.002Z,5.30
2018-12-10T08:14:33.785Z,5.30
2018-12-10T08:15:37.520Z,5.30
2018-12-10T08:16:41.262Z,5.30
2018-12-10T08:17:45.160Z,5.30
2018-12-10T08:18:48.901Z,5.30
2018-12-10T08:19:52.598Z,5.30
2018-12-10T08:21:02.259Z,5.30
2018-12-10T08:22:02.290Z,5.40
2018-12-10T08:23:06.033Z,5.40
2018-12-10T08:24:09.779Z,5.40
2018-12-10T08:25:13.449Z,5.40
2018-12-10T08:26:17.182Z,5.40
2018-12-10T08:27:20.907Z,5.40
2018-12-10T08:28:24.698Z,5.40
2018-12-10T08:29:28.430Z,5.40
2018-12-10T08:30:32.251Z,5.40
2018-12-10T08:31:36.006Z,5.40
2018-12-10T08:32:39.781Z,5.50
2018-12-10T08:33:43.642Z,5.50
2018-12-10T08:34:47.387Z,5.50
2018-12-10T08:35:51.182Z,5.50
2018-12-10T08:36:55.731Z,5.50
2018-12-10T08:38:00.658Z,5.50
2018-12-10T08:39:06.722Z,5.50
2018-12-10T08:40:11.599Z,5.50
2018-12-10T08:41:15.368Z,5.50
2018-12-10T08:42:19.243Z,5.40
2018-12-10T08:43:22.981Z,5.40
2018-12-10T08:44:26.713Z,5.40
2018-12-10T08:45:31.464Z,5.40
2018-12-10T08:46:36.260Z,5.40
2018-12-10T08:47:40.031Z,5.40
2018-12-10T08:48:43.813Z,5.40
2018-12-10T08:49:47.559Z,5.40
2018-12-10T08:50:51.282Z,5.40
2018-12-10T08:51:55.051Z,5.50
2018-12-10T08:52:58.785Z,5.50
2018-12-10T08:54:02.553Z,5.50
2018-12-10T08:55:06.362Z,5.50
2018-12-10T08:56:10.174Z,5.40
2018-12-10T08:57:14.006Z,5.40
2018-12-10T08:58:18.062Z,5.40
2018-12-10T08:59:21.906Z,5.40
2018-12-10T09:00:25.621Z,5.40
2018-12-10T09:01:29.362Z,5.30
2018-12-10T09:02:33.151Z,5.40
2018-12-10T09:03:36.901Z,5.30
2018-12-10T09:04:40.653Z,5.30
2018-12-10T09:05:44.433Z,5.30
2018-12-10T09:06:48.273Z,5.40
2018-12-10T09:07:51.963Z,5.30
2018-12-10T09:08:55.747Z,5.30
2018-12-10T09:09:59.494Z,5.40
2018-12-10T09:11:03.266Z,5.30
2018-12-10T09:12:08.103Z,5.30
2018-12-10T09:13:11.870Z,5.30
2018-12-10T09:14:15.603Z,5.30
2018-12-10T09:15:19.382Z,5.30
2018-12-10T09:16:23.185Z,5.40
2018-12-10T09:17:27.038Z,5.40
2018-12-10T09:18:30.727Z,5.40
2018-12-10T09:19:34.475Z,5.40
2018-12-10T09:20:38.230Z,5.40
2018-12-10T09:21:41.919Z,5.50
2018-12-10T09:22:45.634Z,5.50
2018-12-10T09:23:49.397Z,5.40
2018-12-10T09:24:53.146Z,5.40
2018-12-10T09:29:03.295Z,5.50
2018-12-10T09:30:11.417Z,5.50
2018-12-10T10:22:02.290Z,5.80
2018-12-10T10:23:06.125Z,5.80
2018-12-10T10:24:09.897Z,5.80
2018-12-10T10:25:13.675Z,5.80
2018-12-10T10:26:17.528Z,5.80
2018-12-10T10:27:21.465Z,5.80
2018-12-10T10:28:25.201Z,5.80
2018-12-10T10:29:29.048Z,5.80
2018-12-10T10:30:32.869Z,5.80
2018-12-10T10:31:36.625Z,5.80
2018-12-10T10:32:41.172Z,5.80
2018-12-10T10:33:45.153Z,5.80
2018-12-10T10:34:48.959Z,5.80
2018-12-10T10:35:52.834Z,5.80
2018-12-10T10:36:56.609Z,5.80
2018-12-10T10:38:00.401Z,5.80
2018-12-10T10:39:05.942Z,5.80
2018-12-10T10:40:11.837Z,5.90
2018-12-10T10:41:15.516Z,5.90
2018-12-10T10:42:19.355Z,5.90
2018-12-10T10:43:23.846Z,5.90
2018-12-10T10:44:27.703Z,5.90
2018-12-10T10:45:34.934Z,5.90
2018-12-10T10:46:37.184Z,5.90
2018-12-10T10:47:40.946Z,6.00
2018-12-10T10:48:44.737Z,6.00
2018-12-10T10:49:48.469Z,6.00
2018-12-10T10:50:52.280Z,6.00
2018-12-10T10:51:56.066Z,6.00
2018-12-10T10:52:59.791Z,6.00
2018-12-10T10:54:03.766Z,6.00
2018-12-10T10:55:07.472Z,5.90
2018-12-10T10:56:11.306Z,5.90
2018-12-10T10:57:15.008Z,5.90
2018-12-10T10:58:18.951Z,6.00
2018-12-10T10:59:22.712Z,5.90
2018-12-10T11:00:31.972Z,5.90
2018-12-10T11:01:41.216Z,5.90
2018-12-10T11:02:49.246Z,5.90
2018-12-10T11:03:53.044Z,5.90
2018-12-10T11:04:56.802Z,5.90
2018-12-10T11:06:00.556Z,5.90
2018-12-10T11:07:04.314Z,5.90
2018-12-10T11:08:08.062Z,5.90
2018-12-10T11:09:15.634Z,5.90
2018-12-10T11:10:17.587Z,5.90
2018-12-10T11:11:22.491Z,5.90
2018-12-10T11:12:26.241Z,5.90
2018-12-10T11:13:29.960Z,6.00
2018-12-10T11:14:33.725Z,6.00
2018-12-10T11:15:37.515Z,6.00
2018-12-10T11:16:46.103Z,6.00
2018-12-10T11:17:49.866Z,6.00
2018-12-10T11:18:53.696Z,6.00
2018-12-10T11:19:57.398Z,5.90
2018-12-10T11:21:01.625Z,5.90
2018-12-10T11:22:05.366Z,5.90
2018-12-10T11:23:09.207Z,5.90
2018-12-10T11:24:12.955Z,5.90
2018-12-10T11:25:16.834Z,5.90
2018-12-10T11:26:20.629Z,5.90
2018-12-10T11:27:24.370Z,5.90
2018-12-10T11:28:28.494Z,5.90
2018-12-10T11:29:32.237Z,5.90
2018-12-10T11:30:35.990Z,5.90
2018-12-10T11:31:39.732Z,5.90
2018-12-10T11:32:43.452Z,5.90
2018-12-10T11:33:47.587Z,5.90
2018-12-10T11:34:51.416Z,5.90
2018-12-10T11:35:55.132Z,5.90
2018-12-10T11:36:58.813Z,5.90
2018-12-10T11:38:02.611Z,5.90
2018-12-10T11:39:06.601Z,5.90
2018-12-10T11:40:11.338Z,5.90
2018-12-10T11:41:16.128Z,5.90
2018-12-10T11:42:19.821Z,5.90
2018-12-10T11:43:23.609Z,5.90
2018-12-10T11:44:27.379Z,5.90
2018-12-10T11:45:31.097Z,5.90
2018-12-10T11:46:34.881Z,5.90
2018-12-10T11:47:38.650Z,5.90
2018-12-10T11:48:42.424Z,5.90
2018-12-10T11:49:46.283Z,5.90
2018-12-10T11:50:50.053Z,5.80
2018-12-10T11:51:53.803Z,5.80
2018-12-10T11:52:57.619Z,5.80
2018-12-10T11:54:01.334Z,5.80
2018-12-10T11:55:05.331Z,5.80
2018-12-10T11:56:09.145Z,5.80
2018-12-10T11:57:12.923Z,5.80
2018-12-10T11:58:16.634Z,5.80
2018-12-10T11:59:20.467Z,5.80
2018-12-10T12:00:24.235Z,5.80
2018-12-10T12:01:28.055Z,5.80
2018-12-10T12:02:31.801Z,5.80
2018-12-10T12:03:36.607Z,5.80
2018-12-10T12:04:42.281Z,5.70
2018-12-10T12:05:48.077Z,5.70
2018-12-10T12:06:51.843Z,5.70
2018-12-10T12:07:55.586Z,5.70
2018-12-10T12:08:59.330Z,5.70
2018-12-10T12:10:03.090Z,5.80
2018-12-10T12:11:06.862Z,5.80
2018-12-10T12:12:10.573Z,5.80
2018-12-10T12:13:14.302Z,5.80
2018-12-10T12:14:18.010Z,5.80
2018-12-10T12:15:21.778Z,5.80
2018-12-10T12:16:25.516Z,5.80
2018-12-10T12:17:29.270Z,5.80
2018-12-10T12:18:33.019Z,5.80
2018-12-10T12:19:36.787Z,5.80
2018-12-10T12:20:40.583Z,5.80
2018-12-10T12:21:44.337Z,5.80
2018-12-10T12:22:48.184Z,5.80
2018-12-10T12:23:51.898Z,5.80
2018-12-10T12:24:55.610Z,5.80
2018-12-10T12:25:59.346Z,5.70
2018-12-10T12:27:03.097Z,5.70
2018-12-10T12:28:06.963Z,5.80
2018-12-10T12:29:10.761Z,5.80
2018-12-10T12:30:14.555Z,5.80
2018-12-10T12:31:18.288Z,5.70
2018-12-10T12:32:22.129Z,5.70
2018-12-10T12:33:26.121Z,5.70
2018-12-10T12:34:29.814Z,5.70
2018-12-10T12:35:33.597Z,5.70
2018-12-10T12:36:37.338Z,5.70
2018-12-10T12:37:41.171Z,5.70
2018-12-10T12:38:44.938Z,5.70
2018-12-10T12:39:48.658Z,5.70
2018-12-10T12:40:52.380Z,5.70
2018-12-10T12:41:56.117Z,5.70
2018-12-10T12:43:06.875Z,5.70
2018-12-10T12:44:05.846Z,5.70
2018-12-10T12:45:09.581Z,5.70
2018-12-10T12:46:13.297Z,5.70
2018-12-10T12:47:17.205Z,5.70
2018-12-10T12:48:21.008Z,5.70
2018-12-10T12:49:25.355Z,5.70
2018-12-10T12:50:29.126Z,5.70
2018-12-10T12:51:33.487Z,5.70
2018-12-10T12:52:37.217Z,5.70
2018-12-10T12:53:40.987Z,5.70
2018-12-10T12:54:44.733Z,5.70
2018-12-10T12:55:48.509Z,5.70
2018-12-10T12:56:52.252Z,5.70
2018-12-10T12:57:55.973Z,5.70
2018-12-10T12:58:59.778Z,5.70
2018-12-10T13:00:03.674Z,5.60
2018-12-10T13:01:07.758Z,5.60
2018-12-10T13:02:14.078Z,5.60
2018-12-10T13:03:17.787Z,5.60
2018-12-10T13:04:21.566Z,5.60
2018-12-10T13:05:25.411Z,5.60
2018-12-10T13:06:29.169Z,5.60
2018-12-10T13:07:32.942Z,5.60
2018-12-10T13:08:36.695Z,5.50
2018-12-10T13:09:40.394Z,5.50
2018-12-10T13:10:44.886Z,5.50
2018-12-10T13:11:50.318Z,5.50
2018-12-10T13:12:54.023Z,5.50
2018-12-10T13:13:57.684Z,5.50
2018-12-10T13:15:01.514Z,5.40
2018-12-10T13:16:05.236Z,5.30
2018-12-10T13:17:09.014Z,5.30
2018-12-10T13:18:12.803Z,5.20
2018-12-10T13:19:16.551Z,5.10
2018-12-10T13:20:20.238Z,5.10
2018-12-10T13:21:24.019Z,5.00
2018-12-10T13:22:27.710Z,5.00
2018-12-10T13:23:32.697Z,5.00
2018-12-10T13:24:36.753Z,4.90
2018-12-10T13:25:46.020Z,5.00
2018-12-10T13:26:49.751Z,4.90
2018-12-10T13:27:53.549Z,5.00
2018-12-10T13:29:02.712Z,5.00
2018-12-10T13:30:07.699Z,4.90
2018-12-10T13:31:11.445Z,5.00
2018-12-10T13:32:15.170Z,5.00
2018-12-10T13:33:18.935Z,5.10
2018-12-10T13:34:22.655Z,5.10
2018-12-10T13:35:26.457Z,5.10
2018-12-10T13:36:31.302Z,5.10
2018-12-10T13:37:35.027Z,5.20
2018-12-10T13:38:38.763Z,5.20
2018-12-10T13:39:42.496Z,5.30
2018-12-10T13:40:46.296Z,5.30
2018-12-10T13:41:50.024Z,5.30
2018-12-10T13:42:53.677Z,5.30
2018-12-10T13:43:57.464Z,5.30
2018-12-10T13:45:01.242Z,5.30
2018-12-10T13:46:05.022Z,5.30
2018-12-10T13:47:08.786Z,5.30
2018-12-10T13:48:12.525Z,5.30
2018-12-10T13:49:16.366Z,5.30
2018-12-10T13:50:20.103Z,5.30
2018-12-10T13:51:23.844Z,5.30
2018-12-10T13:52:33.339Z,5.30
2018-12-10T13:53:37.075Z,5.30
2018-12-10T13:54:40.892Z,5.30
2018-12-10T13:55:44.610Z,5.20
2018-12-10T13:56:48.375Z,5.20
2018-12-10T13:57:52.199Z,5.20
2018-12-10T13:58:55.950Z,5.20
2018-12-10T13:59:59.788Z,5.20
2018-12-10T14:01:03.581Z,5.20
2018-12-10T14:02:07.369Z,5.20
2018-12-10T14:03:11.183Z,5.30
2018-12-10T14:04:19.457Z,5.30
2018-12-10T14:05:23.184Z,5.30
2018-12-10T14:06:26.913Z,5.30
2018-12-10T14:07:30.778Z,5.30
2018-12-10T14:08:34.551Z,5.30
2018-12-10T14:09:39.233Z,5.30
2018-12-10T14:10:43.025Z,5.30
2018-12-10T14:11:47.345Z,5.30
2018-12-10T14:12:51.299Z,5.30
2018-12-10T14:13:54.958Z,5.30
2018-12-10T14:14:58.681Z,5.30
2018-12-10T14:16:02.409Z,5.20
2018-12-10T14:17:06.195Z,5.30
2018-12-10T14:18:09.931Z,5.30
2018-12-10T14:19:13.747Z,5.30
2018-12-10T14:20:17.521Z,5.30
2018-12-10T14:21:21.346Z,5.40
2018-12-10T14:22:25.092Z,5.30
2018-12-10T14:23:28.882Z,5.30
2018-12-10T14:24:32.734Z,5.30
2018-12-10T14:25:36.622Z,5.30
2018-12-10T14:26:40.308Z,5.30
2018-12-10T14:27:44.063Z,5.30
2018-12-10T14:28:47.865Z,5.30
2018-12-10T14:29:51.715Z,5.30
2018-12-10T14:30:55.474Z,5.30
2018-12-10T14:31:59.256Z,5.30
2018-12-10T14:33:03.047Z,5.30
2018-12-10T14:34:12.289Z,5.30
2018-12-10T14:35:16.086Z,5.30
2018-12-10T14:36:19.713Z,5.30
2018-12-10T14:37:23.469Z,5.30
2018-12-10T14:38:27.163Z,5.30
2018-12-10T14:39:30.854Z,5.30
2018-12-10T14:40:34.635Z,5.40
2018-12-10T14:41:38.419Z,5.40
2018-12-10T14:42:54.082Z,5.40
2018-12-10T14:43:57.808Z,5.40
2018-12-10T14:45:01.556Z,5.40
2018-12-10T14:46:05.441Z,5.30
2018-12-10T14:47:09.194Z,5.30
2018-12-10T14:48:13.925Z,5.30
2018-12-10T14:49:17.734Z,5.30
2018-12-10T14:50:21.584Z,5.30
2018-12-10T14:51:25.372Z,5.30
2018-12-10T14:53:39.371Z,5.20
2018-12-10T14:54:43.136Z,5.30
2018-12-10T14:55:46.932Z,5.30
2018-12-10T14:56:50.666Z,5.30
2018-12-10T14:57:54.460Z,5.30
2018-12-10T14:58:58.150Z,5.30
2018-12-10T15:00:01.945Z,5.30
2018-12-10T15:01:05.648Z,5.30
2018-12-10T15:02:09.487Z,5.30
2018-12-10T15:03:14.337Z,5.30
2018-12-10T15:04:18.079Z,5.30
2018-12-10T15:05:21.798Z,5.30
2018-12-10T15:06:25.528Z,5.30
2018-12-10T15:07:29.253Z,5.20